createdAt,value
2023-02-21T00:02:49.731Z,8.02
2023-02-21T00:05:55.190Z,8.00
2023-02-21T00:09:06.846Z,7.93
2023-02-21T00:12:10.781Z,7.97
2023-02-21T00:15:14.787Z,7.98
2023-02-21T00:18:18.221Z,8.04
2023-02-21T00:21:22.887Z,7.99
2023-02-21T00:24:30.893Z,8.01
2023-02-21T00:27:35.151Z,8.02
2023-02-21T00:30:41.355Z,8.08
2023-02-21T00:33:46.977Z,8.04
2023-02-21T00:36:51.012Z,8.09
2023-02-21T00:39:54.642Z,8.06
2023-02-21T00:42:58.714Z,8.12
2023-02-21T00:46:03.354Z,8.14
2023-02-21T00:49:09.341Z,8.14
2023-02-21T00:52:15.917Z,8.17
2023-02-21T00:55:19.619Z,8.14
2023-02-21T00:58:24.005Z,8.12
2023-02-21T01:01:29.526Z,8.13
2023-02-21T01:04:33.710Z,8.12
2023-02-21T01:07:40.637Z,8.08
2023-02-21T01:10:47.801Z,8.15
2023-02-21T01:13:51.709Z,8.15
2023-02-21T01:17:01.947Z,8.10
2023-02-21T01:20:20.150Z,8.12
2023-02-21T01:23:25.968Z,8.11
2023-02-21T01:26:31.999Z,8.10
2023-02-21T01:29:36.659Z,8.14
2023-02-21T01:32:41.142Z,8.10
2023-02-21T01:35:46.554Z,8.19
2023-02-21T01:38:54.638Z,8.14
2023-02-21T01:41:58.851Z,8.15
2023-02-21T01:45:04.940Z,8.14
2023-02-21T01:48:08.604Z,8.11
2023-02-21T01:51:14.575Z,8.12
2023-02-21T01:54:19.114Z,8.17
2023-02-21T01:57:25.707Z,8.16
2023-02-21T02:00:33.024Z,8.14
2023-02-21T02:03:44.932Z,8.19
2023-02-21T02:06:50.041Z,8.17
2023-02-21T02:09:53.848Z,8.19
2023-02-21T02:12:47.707Z,8.18
2023-02-21T02:15:48.159Z,8.11
2023-02-21T02:18:54.880Z,8.14
2023-02-21T02:22:14.585Z,8.12
2023-02-21T02:25:05.440Z,8.10
2023-02-21T02:28:08.797Z,8.09
2023-02-21T02:31:39.671Z,8.12
2023-02-21T02:34:57.703Z,8.03
2023-02-21T02:37:59.182Z,8.08
2023-02-21T02:41:17.691Z,8.08
2023-02-21T02:44:32.484Z,8.06
2023-02-21T02:47:29.253Z,8.13
2023-02-21T02:50:15.324Z,8.11
2023-02-21T02:53:04.511Z,8.12
2023-02-21T02:55:58.318Z,8.07
2023-02-21T02:58:49.298Z,8.03
2023-02-21T03:01:49.573Z,8.07
2023-02-21T03:05:03.622Z,8.13
2023-02-21T03:08:12.295Z,8.13
2023-02-21T03:11:16.668Z,8.07
2023-02-21T03:14:31.241Z,8.13
2023-02-21T03:17:19.053Z,8.13
2023-02-21T03:20:05.246Z,8.12
2023-02-21T03:22:52.770Z,8.11
2023-02-21T03:25:40.576Z,8.11
2023-02-21T03:28:27.107Z,8.15
2023-02-21T03:31:16.055Z,8.17
2023-02-21T03:34:01.715Z,8.17
2023-02-21T03:36:47.563Z,8.14
2023-02-21T03:39:33.633Z,8.15
2023-02-21T03:42:18.686Z,8.16
2023-02-21T03:45:04.344Z,8.15
2023-02-21T03:47:49.106Z,8.10
2023-02-21T03:50:34.360Z,8.14
2023-02-21T03:53:19.239Z,8.11
2023-02-21T03:56:05.188Z,8.11
2023-02-21T03:58:49.999Z,8.16
2023-02-21T04:01:34.827Z,8.15
2023-02-21T04:04:20.602Z,8.12
2023-02-21T04:07:05.322Z,8.18
2023-02-21T04:09:50.102Z,8.21
2023-02-21T04:12:34.879Z,8.27
2023-02-21T04:15:19.768Z,8.32
2023-02-21T04:18:04.712Z,8.28
2023-02-21T04:20:50.731Z,8.31
2023-02-21T04:23:35.794Z,8.28
2023-02-21T04:26:21.111Z,8.33
2023-02-21T04:29:06.448Z,8.37
2023-02-21T04:31:51.749Z,8.32
2023-02-21T04:34:37.023Z,8.36
2023-02-21T04:37:21.879Z,8.34
2023-02-21T04:40:08.470Z,8.29
2023-02-21T04:42:53.515Z,8.20
2023-02-21T04:45:38.716Z,8.22
2023-02-21T04:48:23.949Z,8.18
2023-02-21T04:51:15.755Z,8.17
2023-02-21T04:54:00.303Z,8.17
2023-02-21T04:56:45.508Z,8.24
2023-02-21T04:59:30.537Z,8.24
2023-02-21T05:02:15.339Z,8.21
2023-02-21T05:05:00.528Z,8.21
2023-02-21T05:07:45.338Z,8.17
2023-02-21T05:10:44.648Z,8.20
2023-02-21T05:13:30.265Z,8.20
2023-02-21T05:16:16.405Z,8.18
2023-02-21T05:19:02.572Z,8.19
2023-02-21T05:21:47.639Z,8.22
2023-02-21T05:24:33.073Z,8.17
2023-02-21T05:27:20.183Z,8.19
2023-02-21T05:30:05.871Z,8.19
2023-02-21T05:32:51.113Z,8.18
2023-02-21T05:35:35.853Z,8.18
2023-02-21T05:38:24.305Z,8.17
2023-02-21T05:41:09.416Z,8.16
2023-02-21T05:43:55.193Z,8.18
2023-02-21T05:46:40.393Z,8.11
2023-02-21T05:49:27.571Z,8.16
2023-02-21T05:52:13.850Z,8.18
2023-02-21T05:54:58.960Z,8.17
2023-02-21T05:57:44.307Z,8.16
2023-02-21T06:00:30.810Z,8.17
2023-02-21T06:03:15.862Z,8.14
2023-02-21T06:06:00.972Z,8.14
2023-02-21T06:08:47.816Z,8.15
2023-02-21T06:11:36.904Z,8.12
2023-02-21T06:14:21.830Z,8.12
2023-02-21T06:17:06.599Z,8.13
2023-02-21T06:19:51.886Z,8.20
2023-02-21T06:22:36.841Z,8.19
2023-02-21T06:25:21.835Z,8.16
2023-02-21T06:28:08.547Z,8.17
2023-02-21T06:30:54.017Z,8.18
2023-02-21T06:33:39.206Z,8.16
2023-02-21T06:36:26.812Z,8.18
2023-02-21T06:39:12.227Z,8.20
2023-02-21T06:41:57.144Z,8.16
2023-02-21T06:44:46.629Z,8.14
2023-02-21T06:47:31.464Z,8.16
2023-02-21T06:50:16.783Z,8.18
2023-02-21T06:53:01.772Z,8.21
2023-02-21T06:55:46.732Z,8.21
2023-02-21T06:58:31.502Z,8.20
2023-02-21T07:01:16.918Z,8.21
2023-02-21T07:04:02.089Z,8.27
2023-02-21T07:06:46.932Z,8.21
2023-02-21T07:09:31.705Z,8.24
2023-02-21T07:12:16.547Z,8.26
2023-02-21T07:15:01.544Z,8.28
2023-02-21T07:17:46.881Z,8.26
2023-02-21T07:20:33.192Z,8.23
2023-02-21T07:23:18.174Z,8.25
2023-02-21T07:26:03.472Z,8.31
2023-02-21T07:28:49.460Z,8.26
2023-02-21T07:31:35.600Z,8.27
2023-02-21T07:34:22.222Z,8.29
2023-02-21T07:37:07.492Z,8.31
2023-02-21T07:39:52.945Z,8.27
2023-02-21T07:42:43.465Z,8.28
2023-02-21T07:45:29.666Z,8.30
2023-02-21T07:48:14.831Z,8.33
2023-02-21T07:50:59.493Z,8.30
2023-02-21T07:53:44.829Z,8.29
2023-02-21T07:56:29.927Z,8.36
2023-02-21T07:59:15.952Z,8.32
2023-02-21T08:02:01.554Z,8.35
2023-02-21T08:04:51.209Z,8.35
2023-02-21T08:07:36.352Z,8.38
2023-02-21T08:10:26.771Z,8.39
2023-02-21T08:13:12.698Z,8.44
2023-02-21T08:15:57.822Z,8.44
2023-02-21T08:18:42.665Z,8.46
2023-02-21T08:21:27.506Z,8.47
2023-02-21T08:24:13.116Z,8.45
2023-02-21T08:26:58.680Z,8.45
2023-02-21T08:29:43.764Z,8.46
2023-02-21T08:32:28.912Z,8.42
2023-02-21T08:35:15.340Z,8.42
2023-02-21T08:38:03.907Z,8.43
2023-02-21T08:40:48.755Z,8.43
2023-02-21T08:43:33.570Z,8.47
2023-02-21T08:46:18.441Z,8.47
2023-02-21T08:49:04.007Z,8.47
2023-02-21T08:51:49.496Z,8.50
2023-02-21T08:54:34.615Z,8.51
2023-02-21T08:57:19.659Z,8.51
2023-02-21T09:00:10.270Z,8.52
2023-02-21T09:02:56.759Z,8.58
2023-02-21T09:05:41.588Z,8.57
2023-02-21T09:08:28.443Z,8.58
2023-02-21T09:11:13.488Z,8.61
2023-02-21T09:13:59.052Z,8.61
2023-02-21T09:16:46.799Z,8.60
2023-02-21T09:19:32.795Z,8.66
2023-02-21T09:22:18.402Z,8.70
2023-02-21T09:25:04.489Z,8.63
2023-02-21T09:27:49.359Z,8.70
2023-02-21T09:30:34.272Z,8.69
2023-02-21T09:33:19.440Z,8.71
2023-02-21T09:36:04.426Z,8.74
2023-02-21T09:38:53.139Z,8.76
2023-02-21T09:41:39.209Z,8.75
2023-02-21T09:44:27.977Z,8.77
2023-02-21T09:47:33.271Z,8.76
2023-02-21T09:50:23.181Z,8.79
2023-02-21T09:53:09.702Z,8.79
2023-02-21T09:55:58.777Z,8.83
2023-02-21T09:58:45.266Z,8.85
2023-02-21T10:02:07.947Z,8.85
2023-02-21T10:05:11.853Z,8.89
2023-02-21T10:08:00.330Z,8.85
2023-02-21T10:10:49.464Z,8.86
2023-02-21T10:13:56.477Z,8.86
2023-02-21T10:17:05.055Z,8.83
2023-02-21T10:20:03.719Z,8.80
2023-02-21T10:22:52.163Z,8.80
2023-02-21T10:25:42.510Z,8.80
2023-02-21T10:28:27.725Z,8.83
2023-02-21T10:31:20.583Z,8.84
2023-02-21T10:34:07.672Z,8.76
2023-02-21T10:36:54.913Z,8.72
2023-02-21T10:39:44.705Z,8.76
2023-02-21T10:42:51.939Z,8.77
2023-02-21T10:45:46.734Z,8.74
2023-02-21T10:48:37.419Z,8.73
2023-02-21T10:51:34.329Z,8.72
2023-02-21T10:54:21.243Z,8.71
2023-02-21T10:57:16.508Z,8.71
2023-02-21T11:00:09.841Z,8.76
2023-02-21T11:02:58.553Z,8.80
2023-02-21T11:05:50.347Z,8.78
2023-02-21T11:08:38.824Z,8.85
2023-02-21T11:11:37.182Z,8.86
2023-02-21T11:14:26.616Z,8.86
2023-02-21T11:17:17.463Z,8.92
2023-02-21T11:20:26.093Z,8.87
2023-02-21T11:23:31.227Z,8.93
2023-02-21T11:26:16.475Z,8.99
2023-02-21T11:29:12.285Z,9.13
2023-02-21T11:31:57.198Z,9.12
2023-02-21T11:34:48.279Z,9.08
2023-02-21T11:37:34.383Z,9.12
2023-02-21T11:40:35.644Z,9.15
2023-02-21T11:43:31.444Z,9.30
2023-02-21T11:46:47.122Z,9.29
2023-02-21T11:49:32.610Z,9.41
2023-02-21T11:52:25.600Z,9.53
2023-02-21T11:55:17.390Z,9.60
2023-02-21T11:58:25.352Z,9.74
2023-02-21T12:01:16.782Z,9.72
2023-02-21T12:04:16.476Z,9.73
2023-02-21T12:07:25.729Z,9.78
2023-02-21T12:10:31.820Z,9.83
2023-02-21T12:13:50.025Z,9.79
2023-02-21T12:17:07.030Z,9.84
2023-02-21T12:20:26.131Z,9.78
2023-02-21T12:23:30.610Z,9.82
2023-02-21T12:26:47.662Z,9.81
2023-02-21T12:29:45.812Z,9.85
2023-02-21T12:32:50.056Z,9.97
2023-02-21T12:35:53.422Z,10.07
2023-02-21T12:39:06.488Z,10.10
2023-02-21T12:42:20.772Z,10.27
2023-02-21T12:45:35.208Z,10.45
2023-02-21T12:48:29.540Z,10.48
2023-02-21T12:51:18.104Z,10.55
2023-02-21T12:54:12.606Z,10.64
2023-02-21T12:57:03.188Z,10.56
2023-02-21T13:00:07.992Z,10.60
2023-02-21T13:03:08.614Z,10.74
2023-02-21T13:05:59.104Z,10.69
2023-02-21T13:09:17.791Z,10.73
2023-02-21T13:12:14.354Z,10.70
2023-02-21T13:15:15.564Z,10.71
2023-02-21T13:18:24.379Z,10.75
2023-02-21T13:21:34.303Z,10.87
2023-02-21T13:24:48.457Z,11.00
2023-02-21T13:27:39.438Z,10.98
2023-02-21T13:30:33.459Z,10.92
2023-02-21T13:33:27.180Z,10.93
2023-02-21T13:36:22.190Z,10.90
2023-02-21T13:39:14.747Z,10.96
2023-02-21T13:42:15.486Z,10.90
2023-02-21T13:45:13.222Z,11.05
2023-02-21T13:47:58.412Z,11.09
2023-02-21T13:50:49.468Z,11.00
2023-02-21T13:54:07.999Z,11.10
2023-02-21T13:56:53.161Z,11.21
2023-02-21T13:59:38.196Z,11.16
2023-02-21T14:02:32.764Z,11.05
2023-02-21T14:05:17.711Z,11.05
2023-02-21T14:08:07.717Z,11.04
2023-02-21T14:10:59.243Z,10.91
2023-02-21T14:14:06.318Z,10.87
2023-02-21T14:17:09.656Z,10.82
2023-02-21T14:19:59.777Z,10.75
2023-02-21T14:22:44.887Z,10.73
2023-02-21T14:25:34.483Z,10.66
2023-02-21T14:28:49.688Z,10.74
2023-02-21T14:32:02.297Z,10.88
2023-02-21T14:34:47.739Z,10.92
2023-02-21T14:37:47.449Z,10.86
2023-02-21T14:40:35.445Z,10.77
2023-02-21T14:43:38.133Z,10.73
2023-02-21T14:46:40.351Z,10.66
2023-02-21T14:49:34.829Z,10.69
2023-02-21T14:52:40.011Z,10.67
2023-02-21T14:56:02.911Z,10.58
2023-02-21T14:59:01.559Z,10.56
2023-02-21T15:02:07.266Z,10.61
2023-02-21T15:05:25.242Z,10.68
2023-02-21T15:08:16.120Z,10.71
2023-02-21T15:11:02.931Z,10.86
2023-02-21T15:13:48.051Z,10.80
2023-02-21T15:16:33.233Z,10.70
2023-02-21T15:19:29.262Z,10.55
2023-02-21T15:22:25.898Z,10.52
2023-02-21T15:25:10.985Z,10.41
2023-02-21T15:27:58.659Z,10.29
2023-02-21T15:31:03.737Z,10.26
2023-02-21T15:33:52.198Z,10.30
2023-02-21T15:36:37.187Z,10.25
2023-02-21T15:39:33.454Z,10.18
2023-02-21T15:42:19.227Z,10.14
2023-02-21T15:45:11.573Z,10.07
2023-02-21T15:47:58.748Z,10.09
2023-02-21T15:50:46.745Z,10.11
2023-02-21T15:53:32.781Z,10.05
2023-02-21T15:56:24.424Z,10.05
2023-02-21T15:59:10.941Z,9.99
2023-02-21T16:02:11.346Z,10.03
2023-02-21T16:04:56.396Z,9.95
2023-02-21T16:07:41.317Z,10.02
2023-02-21T16:10:26.823Z,9.86
2023-02-21T16:13:12.403Z,9.88
2023-02-21T16:16:01.430Z,9.82
2023-02-21T16:18:46.286Z,9.83
2023-02-21T16:21:34.118Z,9.83
2023-02-21T16:24:32.491Z,9.80
2023-02-21T16:27:19.174Z,9.78
2023-02-21T16:30:05.571Z,9.70
2023-02-21T16:32:52.345Z,9.67
2023-02-21T16:35:37.642Z,9.72
2023-02-21T16:38:24.913Z,9.64
2023-02-21T16:41:16.094Z,9.65
2023-02-21T16:44:02.467Z,9.69
2023-02-21T16:46:51.078Z,9.64
2023-02-21T16:49:36.984Z,9.62
2023-02-21T16:52:21.961Z,9.55
2023-02-21T16:55:07.111Z,9.51
2023-02-21T16:57:59.247Z,9.51
2023-02-21T17:00:44.112Z,9.50
2023-02-21T17:03:29.408Z,9.46
2023-02-21T17:06:18.908Z,9.45
2023-02-21T17:09:03.997Z,9.45
2023-02-21T17:11:49.188Z,9.49
2023-02-21T17:14:35.291Z,9.38
2023-02-21T17:17:20.492Z,9.41
2023-02-21T17:20:07.293Z,9.38
2023-02-21T17:22:53.370Z,9.45
2023-02-21T17:25:39.691Z,9.40
2023-02-21T17:28:27.508Z,9.40
2023-02-21T17:31:15.428Z,9.40
2023-02-21T17:34:08.506Z,9.33
2023-02-21T17:36:53.875Z,9.29
2023-02-21T17:39:40.536Z,9.30
2023-02-21T17:42:26.186Z,9.29
2023-02-21T17:45:11.816Z,9.29
2023-02-21T17:47:57.949Z,9.30
2023-02-21T17:50:44.430Z,9.23
2023-02-21T17:53:29.353Z,9.24
2023-02-21T17:56:20.079Z,9.21
2023-02-21T17:59:05.088Z,9.17
2023-02-21T18:01:55.177Z,9.21
2023-02-21T18:04:40.693Z,9.20
2023-02-21T18:07:28.542Z,9.17
2023-02-21T18:10:13.316Z,9.18
2023-02-21T18:12:58.189Z,9.14
2023-02-21T18:15:42.980Z,9.14
2023-02-21T18:18:27.778Z,9.09
2023-02-21T18:21:13.934Z,9.14
2023-02-21T18:23:59.075Z,9.04
2023-02-21T18:26:47.822Z,9.06
2023-02-21T18:29:33.373Z,9.01
2023-02-21T18:32:18.780Z,9.00
2023-02-21T18:35:04.007Z,9.08
2023-02-21T18:37:49.561Z,8.97
2023-02-21T18:40:34.654Z,8.98
2023-02-21T18:43:27.483Z,8.99
2023-02-21T18:46:16.096Z,9.07
2023-02-21T18:49:01.193Z,8.96
2023-02-21T18:51:46.088Z,8.97
2023-02-21T18:54:34.760Z,8.94
2023-02-21T18:57:23.017Z,8.99
2023-02-21T19:00:10.022Z,8.95
2023-02-21T19:02:56.256Z,8.91
2023-02-21T19:05:41.490Z,8.90
2023-02-21T19:08:27.852Z,8.89
2023-02-21T19:11:16.373Z,8.89
2023-02-21T19:14:03.957Z,8.88
2023-02-21T19:16:53.021Z,8.88
2023-02-21T19:19:40.578Z,8.81
2023-02-21T19:22:25.903Z,8.84
2023-02-21T19:25:11.101Z,8.81
2023-02-21T19:28:00.716Z,8.76
2023-02-21T19:31:04.365Z,8.74
2023-02-21T19:33:54.142Z,8.76
2023-02-21T19:36:40.351Z,8.69
2023-02-21T19:39:27.900Z,8.74
2023-02-21T19:42:16.628Z,8.75
2023-02-21T19:45:05.040Z,8.71
2023-02-21T19:47:52.075Z,8.75
2023-02-21T19:50:44.576Z,8.73
2023-02-21T19:53:30.054Z,8.73
2023-02-21T19:56:16.762Z,8.72
2023-02-21T19:59:02.480Z,8.68
2023-02-21T20:01:49.025Z,8.69
2023-02-21T20:04:38.291Z,8.67
2023-02-21T20:07:24.151Z,8.65
2023-02-21T20:10:11.353Z,8.54
2023-02-21T20:13:06.157Z,8.57
2023-02-21T20:15:51.165Z,8.63
2023-02-21T20:18:38.143Z,8.55
2023-02-21T20:21:26.830Z,8.53
2023-02-21T20:24:13.775Z,8.57
2023-02-21T20:27:01.317Z,8.46
2023-02-21T20:29:47.444Z,8.50
2023-02-21T20:32:33.844Z,8.51
2023-02-21T20:35:21.306Z,8.53
2023-02-21T20:38:09.788Z,8.47
2023-02-21T20:40:56.208Z,8.41
2023-02-21T20:43:41.675Z,8.43
2023-02-21T20:46:31.043Z,8.42
2023-02-21T20:49:20.709Z,8.41
2023-02-21T20:52:05.915Z,8.39
2023-02-21T20:54:54.391Z,8.36
2023-02-21T20:57:41.258Z,8.39
2023-02-21T21:00:32.134Z,8.43
2023-02-21T21:03:19.128Z,8.35
2023-02-21T21:06:07.540Z,8.32
2023-02-21T21:08:53.277Z,8.33
2023-02-21T21:11:40.953Z,8.39
2023-02-21T21:14:32.086Z,8.44
2023-02-21T21:17:18.753Z,8.40
2023-02-21T21:20:10.433Z,8.39
2023-02-21T21:22:57.052Z,8.35
2023-02-21T21:25:42.386Z,8.37
2023-02-21T21:28:34.213Z,8.33
2023-02-21T21:31:23.939Z,8.32
2023-02-21T21:34:09.719Z,8.31
2023-02-21T21:36:57.961Z,8.33
2023-02-21T21:39:49.616Z,8.30
2023-02-21T21:42:36.329Z,8.29
2023-02-21T21:45:25.542Z,8.32
2023-02-21T21:48:11.189Z,8.30
2023-02-21T21:50:56.619Z,8.36
2023-02-21T21:53:41.599Z,8.33
2023-02-21T21:56:30.089Z,8.34
2023-02-21T21:59:20.269Z,8.30
2023-02-21T22:02:05.724Z,8.30
2023-02-21T22:04:54.096Z,8.31
2023-02-21T22:07:41.777Z,8.34
2023-02-21T22:10:27.931Z,8.37
2023-02-21T22:13:20.416Z,8.37
2023-02-21T22:16:11.871Z,8.33
2023-02-21T22:18:57.958Z,8.29
2023-02-21T22:21:47.955Z,8.29
2023-02-21T22:24:33.648Z,8.20
2023-02-21T22:27:19.069Z,8.27
2023-02-21T22:30:04.244Z,8.25
2023-02-21T22:32:50.215Z,8.20
2023-02-21T22:35:35.964Z,8.24
2023-02-21T22:38:22.043Z,8.21
2023-02-21T22:41:09.575Z,8.22
2023-02-21T22:43:58.200Z,8.18
2023-02-21T22:46:48.933Z,8.18
2023-02-21T22:49:33.952Z,8.14
2023-02-21T22:52:20.155Z,8.13
2023-02-21T22:55:05.941Z,8.15
2023-02-21T22:57:58.365Z,8.18
2023-02-21T23:00:43.854Z,8.09
2023-02-21T23:03:29.929Z,8.05
2023-02-21T23:06:15.098Z,8.07
2023-02-21T23:09:11.839Z,8.00
2023-02-21T23:12:00.488Z,8.00
2023-02-21T23:14:47.939Z,8.02
2023-02-21T23:17:32.733Z,7.95
2023-02-21T23:20:23.379Z,7.91
2023-02-21T23:23:09.265Z,7.83
2023-02-21T23:25:59.290Z,7.83
2023-02-21T23:28:44.872Z,7.69
2023-02-21T23:31:30.922Z,7.57
2023-02-21T23:34:16.819Z,7.48
2023-02-21T23:37:07.652Z,7.43
2023-02-21T23:39:52.814Z,7.35
2023-02-21T23:42:42.837Z,7.29
2023-02-21T23:45:27.895Z,7.27
2023-02-21T23:48:16.122Z,7.23
2023-02-21T23:51:00.984Z,7.19
2023-02-21T23:53:45.809Z,7.19
2023-02-21T23:56:30.545Z,7.22
2023-02-21T23:59:16.982Z,7.22
